Time;durP1;ratioP1;P1;durP2;ratioP2;P2;SDS_P1;SDS_P2;PMS_P1;PMS_P2;Temp;Humidity;BMP_temperature;BMP_pressure;BME280_temperature;BME280_humidity;BME280_pressure;Samples;Min_cycle;Max_cycle;Signal;HPM_P1;HPM_P2
2023/01/21 00:00:39;;;;;;;26.73;20.20;;;7.90;92.20;;;;;;5075352;28;20024;-58
2023/01/21 00:03:05;;;;;;;28.40;21.60;;;8.00;92.20;;;;;;5075011;28;20029;-59
2023/01/21 00:05:30;;;;;;;26.92;21.48;;;7.90;92.20;;;;;;5075629;28;20021;-58
2023/01/21 00:07:55;;;;;;;27.70;21.55;;;8.00;92.20;;;;;;5073291;28;20093;-60
2023/01/21 00:10:21;;;;;;;28.75;21.77;;;7.90;92.10;;;;;;5072442;28;20699;-62
2023/01/21 00:12:47;;;;;;;29.10;21.80;;;7.90;92.20;;;;;;5074304;28;20020;-59
2023/01/21 00:15:12;;;;;;;28.50;21.33;;;7.90;92.20;;;;;;5057181;28;20063;-59
2023/01/21 00:17:38;;;;;;;28.05;21.35;;;7.80;92.20;;;;;;5073870;28;20389;-58
2023/01/21 00:20:05;;;;;;;28.83;21.95;;;7.90;92.20;;;;;;5075158;28;20024;-59
2023/01/21 00:22:31;;;;;;;28.73;22.15;;;7.80;92.20;;;;;;5074913;28;20053;-58
2023/01/21 00:24:57;;;;;;;27.05;21.73;;;7.80;92.10;;;;;;5074786;28;20035;-59
2023/01/21 00:27:22;;;;;;;27.90;21.92;;;7.80;92.10;;;;;;5075054;28;20024;-59
2023/01/21 00:29:48;;;;;;;28.50;21.55;;;7.80;92.10;;;;;;5074997;28;20036;-58
2023/01/21 00:32:14;;;;;;;33.55;23.40;;;7.80;92.20;;;;;;5074928;28;20100;-58
2023/01/21 00:34:39;;;;;;;32.35;24.50;;;7.80;92.20;;;;;;5074947;28;20031;-58
2023/01/21 00:37:05;;;;;;;30.35;23.13;;;7.70;92.10;;;;;;5075037;28;20025;-58
2023/01/21 00:39:31;;;;;;;33.03;23.20;;;7.70;92.10;;;;;;5074614;28;20033;-59
2023/01/21 00:41:56;;;;;;;31.60;22.92;;;7.70;92.20;;;;;;5074754;28;20028;-59
2023/01/21 00:44:22;;;;;;;32.17;23.92;;;7.70;92.10;;;;;;5074661;28;20473;-60
2023/01/21 00:46:47;;;;;;;30.33;22.63;;;7.70;92.10;;;;;;5074662;28;20470;-59
2023/01/21 00:49:13;;;;;;;31.67;22.63;;;7.70;92.20;;;;;;5074746;28;20033;-61
2023/01/21 00:51:38;;;;;;;33.40;23.95;;;7.60;92.00;;;;;;5074743;28;20466;-60
2023/01/21 00:54:04;;;;;;;32.67;23.42;;;7.60;91.90;;;;;;5074013;28;20078;-60
2023/01/21 00:56:29;;;;;;;31.92;23.88;;;7.60;92.00;;;;;;5074676;28;20036;-59
2023/01/21 00:58:55;;;;;;;34.83;23.95;;;7.50;92.00;;;;;;5075040;28;20103;-58
2023/01/21 01:01:21;;;;;;;34.65;24.08;;;7.60;92.00;;;;;;5074443;28;20029;-58
2023/01/21 01:03:48;;;;;;;31.83;23.52;;;7.50;91.90;;;;;;5074471;28;20111;-59
2023/01/21 01:06:19;;;;;;;28.92;22.13;;;7.60;91.90;;;;;;5073406;28;20024;-62
2023/01/21 01:08:45;;;;;;;33.50;24.10;;;7.60;91.90;;;;;;5073953;28;20071;-61
2023/01/21 01:11:12;;;;;;;31.48;24.02;;;7.60;92.20;;;;;;5074214;28;20052;-60
2023/01/21 01:13:39;;;;;;;32.45;23.88;;;7.50;91.80;;;;;;5074142;28;20477;-60
2023/01/21 01:16:06;;;;;;;35.80;24.58;;;7.50;91.80;;;;;;5056053;28;20374;-58
2023/01/21 01:18:33;;;;;;;32.88;23.75;;;7.50;91.80;;;;;;5074134;28;20016;-58
2023/01/21 01:20:59;;;;;;;35.92;24.02;;;7.50;91.70;;;;;;5074240;28;20025;-58
2023/01/21 01:23:25;;;;;;;33.80;22.65;;;7.40;91.70;;;;;;5073653;28;20020;-58
2023/01/21 01:26:02;;;;;;;30.95;23.13;;;7.50;91.70;;;;;;5073901;28;20496;-58
2023/01/21 01:28:29;;;;;;;30.83;22.98;;;7.40;91.70;;;;;;5073827;28;20108;-58
2023/01/21 01:30:54;;;;;;;33.40;23.70;;;7.40;91.80;;;;;;5056112;28;20013;-58
2023/01/21 01:33:20;;;;;;;31.75;24.50;;;7.40;91.80;;;;;;5073807;28;20389;-58
2023/01/21 01:35:47;;;;;;;33.50;25.33;;;7.40;91.80;;;;;;5073798;28;20082;-58
2023/01/21 01:38:18;;;;;;;35.45;24.17;;;7.40;91.70;;;;;;5073449;28;20485;-59
2023/01/21 01:40:45;;;;;;;36.30;25.95;;;7.40;91.80;;;;;;5073560;28;20029;-58
2023/01/21 01:43:23;;;;;;;34.28;24.77;;;7.40;91.80;;;;;;5073695;28;20024;-60
2023/01/21 01:45:49;;;;;;;34.97;24.55;;;7.40;91.80;;;;;;5073569;28;20115;-59
2023/01/21 01:48:24;;;;;;;30.67;24.15;;;7.30;91.90;;;;;;5073453;28;20079;-58
2023/01/21 01:50:50;;;;;;;33.50;24.55;;;7.30;91.90;;;;;;5073313;28;20028;-58
2023/01/21 01:53:18;;;;;;;32.70;24.95;;;7.30;91.90;;;;;;5073211;28;20385;-58
2023/01/21 01:55:45;;;;;;;35.28;23.67;;;7.30;91.90;;;;;;5055656;28;20039;-59
2023/01/21 01:58:14;;;;;;;33.22;24.73;;;7.20;91.80;;;;;;5073501;28;20033;-60
2023/01/21 02:00:40;;;;;;;35.15;25.90;;;7.20;91.80;;;;;;5073122;28;20013;-58
2023/01/21 02:05:50;;;;;;;31.50;23.83;;;7.20;91.80;;;;;;5072897;28;20385;-58
2023/01/21 02:08:16;;;;;;;34.83;23.70;;;7.20;91.80;;;;;;5073011;28;20036;-58
2023/01/21 02:10:42;;;;;;;37.40;25.42;;;7.20;91.90;;;;;;5072922;28;20074;-58
2023/01/21 02:13:08;;;;;;;34.92;25.20;;;7.20;91.90;;;;;;5073158;28;20032;-59
2023/01/21 02:15:54;;;;;;;35.22;25.77;;;7.20;91.90;;;;;;5072958;28;20021;-58
2023/01/21 02:18:39;;;;;;;33.90;25.23;;;7.20;91.90;;;;;;5072771;28;20108;-58
2023/01/21 02:21:24;;;;;;;32.67;25.23;;;7.20;92.00;;;;;;5072577;28;20029;-58
2023/01/21 02:24:08;;;;;;;34.33;25.77;;;7.20;91.90;;;;;;5072723;28;20070;-58
2023/01/21 02:26:37;;;;;;;36.25;24.95;;;7.10;91.90;;;;;;5072724;28;20477;-58
2023/01/21 02:29:22;;;;;;;36.95;25.75;;;7.10;91.90;;;;;;5072733;28;20039;-58
2023/01/21 02:32:14;;;;;;;33.08;24.65;;;7.10;92.00;;;;;;5042005;28;20036;-58
2023/01/21 02:35:02;;;;;;;;;;;7.10;92.00;;;;;;5051248;28;20036;-58
2023/01/21 02:37:44;;;;;;;36.40;24.40;;;7.10;92.00;;;;;;5052384;28;20288;-59
2023/01/21 02:40:27;;;;;;;37.22;26.13;;;7.10;92.00;;;;;;5052694;28;20029;-59
2023/01/21 02:43:07;;;;;;;34.40;25.50;;;7.00;92.00;;;;;;5052690;28;20021;-58
2023/01/21 02:45:46;;;;;;;32.08;24.40;;;7.10;92.00;;;;;;5052525;28;20029;-58
2023/01/21 02:48:28;;;;;;;34.35;25.88;;;7.10;92.10;;;;;;5052677;28;20021;-59
2023/01/21 02:50:53;;;;;;;34.67;25.20;;;7.00;92.00;;;;;;5052260;28;20033;-60
2023/01/21 02:53:28;;;;;;;37.63;26.33;;;7.00;92.10;;;;;;5052576;28;20032;-59
2023/01/21 02:55:56;;;;;;;36.05;26.95;;;7.00;92.00;;;;;;5052792;28;20064;-58
2023/01/21 02:58:27;;;;;;;35.22;25.77;;;7.00;92.10;;;;;;5052467;28;20545;-58
2023/01/21 03:01:04;;;;;;;37.83;27.63;;;6.90;92.10;;;;;;5052237;28;20037;-59
2023/01/21 03:03:47;;;;;;;35.33;24.67;;;6.90;92.00;;;;;;5052352;28;20021;-60
2023/01/21 03:06:44;;;;;;;40.15;26.13;;;6.90;92.00;;;;;;5052319;28;20025;-60
2023/01/21 03:09:21;;;;;;;36.85;26.50;;;6.90;92.20;;;;;;5052337;28;20051;-58
2023/01/21 03:12:04;;;;;;;36.60;26.10;;;6.90;92.10;;;;;;5052157;28;20026;-59
2023/01/21 03:17:40;;;;;;;36.60;25.83;;;6.90;92.20;;;;;;5052404;28;20115;-58
2023/01/21 03:20:16;;;;;;;41.38;28.02;;;6.90;92.20;;;;;;5051951;28;20386;-59
2023/01/21 03:22:43;;;;;;;39.17;27.83;;;6.80;92.20;;;;;;5051846;28;20106;-58
2023/01/21 03:25:11;;;;;;;39.25;27.80;;;6.80;92.20;;;;;;5050240;28;20029;-59
2023/01/21 03:27:40;;;;;;;41.53;30.00;;;6.80;92.20;;;;;;5052032;28;20108;-58
2023/01/21 03:30:13;;;;;;;41.03;29.30;;;6.80;92.10;;;;;;5056189;28;20031;-59
2023/01/21 03:32:42;;;;;;;40.75;29.08;;;6.80;92.20;;;;;;5056452;28;20478;-58
2023/01/21 03:35:09;;;;;;;42.17;30.38;;;6.70;92.10;;;;;;5055847;28;20032;-59
2023/01/21 03:37:42;;;;;;;40.97;29.30;;;6.80;92.10;;;;;;5054969;28;20021;-58
2023/01/21 03:40:17;;;;;;;39.47;27.73;;;6.80;92.00;;;;;;5038108;28;20116;-59
2023/01/21 03:42:53;;;;;;;41.30;28.33;;;6.70;92.00;;;;;;5055910;28;20494;-59
2023/01/21 03:45:43;;;;;;;40.83;28.17;;;6.70;92.00;;;;;;5055938;28;20090;-58
2023/01/21 03:48:38;;;;;;;38.75;27.42;;;6.70;92.10;;;;;;5055607;28;20037;-58
2023/01/21 03:51:14;;;;;;;43.70;26.85;;;6.70;92.10;;;;;;5055702;28;20029;-58
2023/01/21 03:53:39;;;;;;;39.67;27.85;;;6.60;92.20;;;;;;5056279;28;20052;-58
2023/01/21 03:56:05;;;;;;;38.83;27.85;;;6.60;92.10;;;;;;5055422;28;20478;-59
2023/01/21 03:58:31;;;;;;;38.58;27.17;;;6.60;92.10;;;;;;5055660;28;20498;-58
2023/01/21 04:00:56;;;;;;;38.85;27.23;;;6.60;92.10;;;;;;5055461;28;20463;-59
2023/01/21 04:03:22;;;;;;;41.65;27.67;;;6.60;92.10;;;;;;5055495;28;20025;-58
2023/01/21 04:05:48;;;;;;;42.17;28.95;;;6.50;92.20;;;;;;5037589;28;20021;-58
2023/01/21 04:08:13;;;;;;;40.28;28.40;;;6.50;92.50;;;;;;5055436;28;20032;-58
2023/01/21 04:10:39;;;;;;;38.65;27.80;;;6.50;92.20;;;;;;5055262;28;20029;-59
2023/01/21 04:13:04;;;;;;;40.92;30.38;;;6.50;92.30;;;;;;5055182;28;20030;-58
2023/01/21 04:15:30;;;;;;;42.58;29.55;;;6.50;92.30;;;;;;5055412;28;20029;-58
2023/01/21 04:17:55;;;;;;;42.58;28.67;;;6.50;92.30;;;;;;5054988;28;20029;-58
2023/01/21 04:20:21;;;;;;;43.00;29.90;;;6.50;92.30;;;;;;5055159;28;20025;-58
2023/01/21 04:22:47;;;;;;;41.10;29.80;;;6.50;92.40;;;;;;5055149;28;20029;-59
2023/01/21 04:25:12;;;;;;;41.15;28.13;;;6.50;92.30;;;;;;5055214;28;20033;-58
2023/01/21 04:27:38;;;;;;;42.20;28.15;;;6.40;92.40;;;;;;5037018;28;20099;-58
2023/01/21 04:30:04;;;;;;;44.95;29.25;;;6.40;92.40;;;;;;5055165;28;20064;-59
2023/01/21 04:32:29;;;;;;;43.08;28.42;;;6.50;92.40;;;;;;5054574;28;20100;-58
2023/01/21 04:34:55;;;;;;;43.60;30.30;;;6.40;92.50;;;;;;5055077;28;20043;-58
2023/01/21 04:37:20;;;;;;;50.05;31.42;;;6.30;92.50;;;;;;5055070;28;20562;-60
2023/01/21 04:39:46;;;;;;;44.67;30.80;;;6.40;92.50;;;;;;5053402;28;20382;-58
2023/01/21 04:42:11;;;;;;;44.03;30.10;;;6.30;92.50;;;;;;5036895;28;20478;-58
2023/01/21 04:44:37;;;;;;;44.45;30.98;;;6.30;92.50;;;;;;5054603;28;20025;-58
2023/01/21 04:47:02;;;;;;;41.63;29.20;;;6.30;92.50;;;;;;5065514;28;20036;-58
2023/01/21 04:49:28;;;;;;;41.63;29.15;;;6.30;92.50;;;;;;5053929;28;20037;-59
2023/01/21 04:51:53;;;;;;;43.72;30.10;;;6.30;92.60;;;;;;5053811;28;20017;-58
2023/01/21 04:54:19;;;;;;;45.90;30.88;;;6.20;92.60;;;;;;5054105;28;20059;-58
2023/01/21 04:56:44;;;;;;;39.67;28.75;;;6.20;92.60;;;;;;5054518;28;20104;-59
2023/01/21 04:59:10;;;;;;;43.63;29.10;;;6.20;92.70;;;;;;5054467;28;20028;-59
2023/01/21 05:01:35;;;;;;;44.47;29.88;;;6.20;92.70;;;;;;5054129;28;20029;-60
2023/01/21 05:04:01;;;;;;;40.95;28.63;;;6.20;92.70;;;;;;5054224;28;20024;-59
2023/01/21 05:06:26;;;;;;;42.80;29.58;;;6.20;92.70;;;;;;5054247;28;20025;-59
2023/01/21 05:08:52;;;;;;;41.35;29.27;;;6.20;92.70;;;;;;5054328;28;20033;-59
2023/01/21 05:11:19;;;;;;;47.10;30.15;;;6.20;92.70;;;;;;5054352;28;20021;-59
2023/01/21 05:13:44;;;;;;;41.67;29.40;;;6.10;92.80;;;;;;5054014;28;20106;-59
2023/01/21 05:16:10;;;;;;;42.08;30.10;;;6.20;92.80;;;;;;5053878;28;20049;-58
2023/01/21 05:18:36;;;;;;;43.53;29.25;;;6.20;92.80;;;;;;5054036;28;20554;-59
2023/01/21 05:21:02;;;;;;;44.38;29.83;;;6.20;92.80;;;;;;5054186;28;20036;-58
2023/01/21 05:23:28;;;;;;;46.30;30.30;;;6.10;92.80;;;;;;5053977;28;20021;-60
2023/01/21 05:25:53;;;;;;;41.90;28.25;;;6.10;92.80;;;;;;5053844;28;20029;-58
2023/01/21 05:28:19;;;;;;;43.72;29.58;;;6.10;92.80;;;;;;5054073;28;20094;-59
2023/01/21 05:30:44;;;;;;;39.50;28.38;;;6.10;92.90;;;;;;5053546;28;20017;-58
2023/01/21 05:33:10;;;;;;;43.92;28.85;;;6.10;92.90;;;;;;5054021;28;20033;-59
2023/01/21 05:35:35;;;;;;;47.65;29.48;;;6.00;92.90;;;;;;5053646;28;20474;-59
2023/01/21 05:38:01;;;;;;;49.70;29.73;;;6.10;92.90;;;;;;5053839;28;20028;-58
2023/01/21 05:40:27;;;;;;;41.33;27.58;;;6.00;93.20;;;;;;5053784;28;20071;-58
2023/01/21 05:42:52;;;;;;;41.58;29.50;;;6.00;93.00;;;;;;5035995;28;20068;-58
2023/01/21 05:45:18;;;;;;;43.33;28.58;;;6.00;92.90;;;;;;5053675;28;20504;-59
2023/01/21 05:47:43;;;;;;;45.45;30.38;;;6.00;93.00;;;;;;5053432;28;20024;-58
2023/01/21 05:50:10;;;;;;;42.33;29.25;;;6.00;93.00;;;;;;5053414;28;20086;-58
2023/01/21 05:52:35;;;;;;;43.28;29.08;;;6.00;93.00;;;;;;5053220;28;20025;-59
2023/01/21 05:55:01;;;;;;;40.70;28.65;;;6.00;92.90;;;;;;5053689;28;20082;-60
2023/01/21 05:57:27;;;;;;;43.28;29.15;;;5.90;92.90;;;;;;5053692;28;20025;-59
2023/01/21 05:59:52;;;;;;;41.75;28.83;;;5.90;93.10;;;;;;5053013;28;20024;-58
2023/01/21 06:02:18;;;;;;;41.25;29.00;;;5.90;93.00;;;;;;5053878;28;20048;-58
2023/01/21 06:04:43;;;;;;;46.53;31.50;;;5.90;93.10;;;;;;5051792;28;20043;-59
2023/01/21 06:07:09;;;;;;;38.75;27.27;;;5.90;93.10;;;;;;5051392;28;20271;-59
2023/01/21 06:09:34;;;;;;;40.67;28.92;;;5.90;93.00;;;;;;5052743;28;20393;-59
2023/01/21 06:12:00;;;;;;;41.90;28.88;;;5.90;93.10;;;;;;5053377;28;20355;-60
2023/01/21 06:14:26;;;;;;;42.75;28.40;;;5.80;93.20;;;;;;5052999;28;20033;-59
2023/01/21 06:16:51;;;;;;;45.33;29.02;;;5.80;93.10;;;;;;5052826;28;20386;-58
2023/01/21 06:19:17;;;;;;;42.08;29.05;;;5.80;93.10;;;;;;5053255;28;20079;-58
2023/01/21 06:21:42;;;;;;;44.15;29.85;;;5.80;93.10;;;;;;5052712;28;20508;-60
2023/01/21 06:24:09;;;;;;;41.13;29.05;;;5.80;93.20;;;;;;5052934;28;20493;-59
2023/01/21 06:26:34;;;;;;;45.72;30.08;;;5.80;93.20;;;;;;5052790;28;20037;-59
2023/01/21 06:29:00;;;;;;;41.60;28.98;;;5.80;93.20;;;;;;5052610;28;20044;-59
2023/01/21 06:31:26;;;;;;;43.00;29.05;;;5.80;93.20;;;;;;5052705;28;20040;-58
2023/01/21 06:33:52;;;;;;;41.47;29.75;;;5.80;93.20;;;;;;5052008;28;20447;-59
2023/01/21 06:36:18;;;;;;;39.33;27.45;;;5.80;93.20;;;;;;5052763;28;20037;-60
2023/01/21 06:38:43;;;;;;;43.05;29.08;;;5.70;93.20;;;;;;5053182;28;20092;-60
2023/01/21 06:41:09;;;;;;;40.67;28.73;;;5.70;93.30;;;;;;5052512;28;20527;-59
2023/01/21 06:43:34;;;;;;;43.35;28.60;;;5.70;93.30;;;;;;5052544;28;20024;-61
2023/01/21 06:46:00;;;;;;;39.97;27.85;;;5.70;93.30;;;;;;5052515;28;20020;-61
2023/01/21 06:48:25;;;;;;;40.00;29.17;;;5.70;93.30;;;;;;5051366;28;20055;-59
2023/01/21 06:50:51;;;;;;;44.45;29.50;;;5.70;93.40;;;;;;5052225;28;20035;-59
2023/01/21 06:53:16;;;;;;;43.25;28.23;;;5.70;93.40;;;;;;5052616;28;20079;-60
2023/01/21 06:55:42;;;;;;;41.30;27.60;;;5.70;93.50;;;;;;5052570;28;20029;-58
2023/01/21 06:58:07;;;;;;;42.50;27.75;;;5.70;93.40;;;;;;5052393;28;20394;-59
2023/01/21 07:00:33;;;;;;;38.47;28.15;;;5.70;93.50;;;;;;5052339;28;20029;-63
2023/01/21 07:02:59;;;;;;;42.00;27.98;;;5.70;93.40;;;;;;5051420;28;20049;-59
2023/01/21 07:05:25;;;;;;;42.40;28.77;;;5.70;93.40;;;;;;5052552;28;20025;-59
2023/01/21 07:07:55;;;;;;;44.15;28.92;;;5.60;93.40;;;;;;5052103;28;20025;-61
2023/01/21 07:10:21;;;;;;;39.80;27.92;;;5.60;93.50;;;;;;5052144;28;20036;-59
2023/01/21 07:12:47;;;;;;;42.67;29.05;;;5.60;93.40;;;;;;5052413;28;20017;-60
2023/01/21 07:15:13;;;;;;;44.13;29.65;;;5.60;93.50;;;;;;5052458;28;20033;-59
2023/01/21 07:17:38;;;;;;;41.60;28.35;;;5.60;93.50;;;;;;5052028;28;20013;-60
2023/01/21 07:20:05;;;;;;;43.53;28.10;;;5.60;93.50;;;;;;5052232;28;20112;-60
2023/01/21 07:22:33;;;;;;;41.15;27.75;;;5.60;93.50;;;;;;5052093;28;20018;-60
2023/01/21 07:24:58;;;;;;;40.53;27.60;;;5.50;93.50;;;;;;5034353;28;20074;-62
2023/01/21 07:27:24;;;;;;;40.53;28.77;;;5.50;93.60;;;;;;5053484;28;20535;-60
2023/01/21 07:29:50;;;;;;;42.97;29.15;;;5.50;93.60;;;;;;5055736;28;20033;-65
2023/01/21 07:32:16;;;;;;;42.83;28.17;;;5.50;93.70;;;;;;5060470;28;20713;-59
2023/01/21 07:34:41;;;;;;;41.72;28.45;;;5.50;93.60;;;;;;5063770;28;20025;-63
2023/01/21 07:37:07;;;;;;;45.50;28.70;;;5.50;93.70;;;;;;5055984;28;20626;-63
2023/01/21 07:39:32;;;;;;;40.38;27.95;;;5.50;93.70;;;;;;5063456;28;20024;-60
2023/01/21 07:41:58;;;;;;;40.47;27.60;;;5.50;93.70;;;;;;5057372;28;20021;-60
2023/01/21 07:44:23;;;;;;;41.30;28.00;;;5.40;93.80;;;;;;5051154;28;20502;-60
2023/01/21 07:46:50;;;;;;;40.95;26.90;;;5.50;93.80;;;;;;5051482;28;20056;-58
2023/01/21 07:49:18;;;;;;;38.78;25.90;;;5.40;93.90;;;;;;5051658;28;20048;-59
2023/01/21 07:51:44;;;;;;;42.88;26.83;;;5.50;93.90;;;;;;5051354;28;20020;-59
2023/01/21 07:54:11;;;;;;;43.95;28.80;;;5.40;93.90;;;;;;5053021;28;20490;-60
2023/01/21 07:56:37;;;;;;;41.55;27.02;;;5.40;93.90;;;;;;5053119;28;20100;-59
2023/01/21 07:59:03;;;;;;;40.95;26.60;;;5.40;93.90;;;;;;5060979;28;20111;-62
2023/01/21 08:01:30;;;;;;;40.25;27.40;;;5.40;93.80;;;;;;5067159;28;20035;-66
2023/01/21 08:03:57;;;;;;;36.60;25.77;;;5.40;93.90;;;;;;5068048;28;20036;-62
2023/01/21 08:06:22;;;;;;;38.17;26.20;;;5.40;94.00;;;;;;5059350;28;20060;-67
2023/01/21 08:08:48;;;;;;;38.83;26.50;;;5.40;93.90;;;;;;5047633;28;20467;-65
2023/01/21 08:11:13;;;;;;;42.80;27.30;;;5.50;94.00;;;;;;5064849;28;20021;-63
2023/01/21 08:13:39;;;;;;;38.25;26.45;;;5.40;94.00;;;;;;5061161;28;20028;-68
2023/01/21 08:16:05;;;;;;;47.92;34.40;;;5.50;94.00;;;;;;5055381;28;20037;-65
2023/01/21 08:18:31;;;;;;;40.95;27.48;;;5.40;93.90;;;;;;5063362;28;20079;-60
2023/01/21 08:20:58;;;;;;;42.63;32.20;;;5.40;94.10;;;;;;5037108;28;20492;-61
2023/01/21 08:23:24;;;;;;;42.40;27.65;;;5.40;94.00;;;;;;5069015;28;20059;-64
2023/01/21 08:25:50;;;;;;;41.95;29.08;;;5.40;94.00;;;;;;5071738;28;20032;-65
2023/01/21 08:28:16;;;;;;;36.60;26.95;;;5.50;94.10;;;;;;5069943;28;20115;-59
2023/01/21 08:30:41;;;;;;;46.00;36.70;;;5.30;94.50;;;;;;5074718;28;20394;-66
2023/01/21 08:33:07;;;;;;;43.53;29.75;;;5.00;93.50;;;;;;5074779;28;20033;-68
2023/01/21 08:35:33;;;;;;;38.72;26.95;;;4.40;94.20;;;;;;5075046;28;20677;-65
2023/01/21 08:37:59;;;;;;;38.08;26.38;;;4.60;95.50;;;;;;5074628;28;20028;-61
2023/01/21 08:40:26;;;;;;;42.30;28.38;;;4.90;95.30;;;;;;5048140;28;20520;-61
2023/01/21 08:42:58;;;;;;;40.30;27.23;;;5.10;94.80;;;;;;5071855;28;20382;-65
2023/01/21 08:45:24;;;;;;;;;;;5.20;94.70;;;;;;5075301;28;20121;-64
2023/01/21 08:47:49;;;;;;;38.15;26.58;;;5.20;94.60;;;;;;5074336;28;20374;-65
2023/01/21 08:50:15;;;;;;;38.85;25.27;;;5.30;94.60;;;;;;5074931;28;20470;-65
2023/01/21 08:52:41;;;;;;;39.20;26.33;;;5.20;95.00;;;;;;5068805;28;20481;-63
2023/01/21 08:55:07;;;;;;;41.55;27.15;;;5.30;94.90;;;;;;5069172;28;20039;-64
2023/01/21 08:57:32;;;;;;;42.88;26.75;;;5.30;94.90;;;;;;5075680;28;20378;-65
2023/01/21 08:59:58;;;;;;;38.50;26.02;;;5.30;94.90;;;;;;5071268;28;20025;-61
2023/01/21 09:02:23;;;;;;;39.03;27.80;;;5.40;94.90;;;;;;5065114;28;20029;-64
2023/01/21 09:04:49;;;;;;;39.30;26.17;;;5.40;94.80;;;;;;5075887;28;20029;-62
2023/01/21 09:07:15;;;;;;;37.60;26.35;;;5.40;94.90;;;;;;5068509;28;20770;-62
2023/01/21 09:09:40;;;;;;;45.35;27.65;;;5.40;94.80;;;;;;5079493;28;20040;-63
2023/01/21 09:12:07;;;;;;;37.88;27.02;;;5.40;95.00;;;;;;5067202;28;20094;-62
2023/01/21 09:14:32;;;;;;;36.58;26.25;;;5.40;95.10;;;;;;5070331;28;20094;-61
2023/01/21 09:16:58;;;;;;;44.20;26.98;;;5.40;94.90;;;;;;5063251;28;20454;-58
2023/01/21 09:19:24;;;;;;;41.47;27.27;;;5.40;95.00;;;;;;5070957;28;20089;-60
2023/01/21 09:21:51;;;;;;;41.95;27.77;;;5.50;95.10;;;;;;5070758;28;20448;-63
2023/01/21 09:24:17;;;;;;;39.17;27.45;;;5.50;95.30;;;;;;5072205;28;20112;-59
2023/01/21 09:26:42;;;;;;;39.88;26.58;;;5.50;95.40;;;;;;5072439;28;20474;-61
2023/01/21 09:29:09;;;;;;;40.83;26.65;;;5.50;95.30;;;;;;5072592;28;20039;-64
2023/01/21 09:31:35;;;;;;;45.17;29.95;;;5.60;95.50;;;;;;5072383;28;20021;-63
2023/01/21 09:34:03;;;;;;;42.28;27.90;;;5.60;95.20;;;;;;5068733;28;20033;-62
2023/01/21 09:36:30;;;;;;;46.22;30.98;;;5.50;95.00;;;;;;5065674;28;20104;-67
2023/01/21 09:38:56;;;;;;;47.95;30.58;;;5.50;94.80;;;;;;5072939;28;20028;-62
2023/01/21 09:41:35;;;;;;;43.80;29.95;;;5.50;94.80;;;;;;5072112;28;20035;-61
2023/01/21 09:44:13;;;;;;;42.88;29.20;;;5.60;95.00;;;;;;5071843;28;20020;-65
2023/01/21 09:46:39;;;;;;;45.88;30.92;;;5.60;95.00;;;;;;5069133;28;20051;-67
2023/01/21 09:49:11;;;;;;;40.28;28.30;;;5.60;94.80;;;;;;5072251;28;20044;-61
2023/01/21 09:51:37;;;;;;;42.97;29.60;;;5.50;95.60;;;;;;5070019;28;20062;-64
2023/01/21 09:54:12;;;;;;;41.50;27.83;;;5.50;95.50;;;;;;5071955;28;20040;-62
2023/01/21 09:56:50;;;;;;;43.33;27.15;;;5.60;95.60;;;;;;5072357;28;20055;-62
2023/01/21 09:59:32;;;;;;;41.75;28.92;;;5.60;95.40;;;;;;5072853;28;20031;-62
2023/01/21 10:01:59;;;;;;;44.28;28.42;;;5.70;95.00;;;;;;5073079;28;20027;-62
2023/01/21 10:04:27;;;;;;;42.30;28.85;;;5.60;94.90;;;;;;5069068;28;20497;-59
2023/01/21 10:07:03;;;;;;;42.35;28.98;;;5.60;94.80;;;;;;5070004;28;20029;-60
2023/01/21 10:09:43;;;;;;;41.25;28.15;;;5.70;94.70;;;;;;5066317;28;20138;-60
2023/01/21 10:12:17;;;;;;;42.30;27.95;;;5.60;94.60;;;;;;5069103;28;20470;-59
2023/01/21 10:15:00;;;;;;;40.85;28.75;;;5.70;94.70;;;;;;5062725;28;20028;-60
2023/01/21 10:17:50;;;;;;;38.80;27.38;;;5.70;94.60;;;;;;5074951;28;20028;-62
2023/01/21 10:20:40;;;;;;;46.63;30.35;;;5.70;94.70;;;;;;5062440;28;20071;-61
2023/01/21 10:23:17;;;;;;;40.83;27.23;;;5.70;95.10;;;;;;5063784;28;20967;-61
2023/01/21 10:25:46;;;;;;;41.83;28.05;;;5.60;95.10;;;;;;5060159;28;20486;-62
2023/01/21 10:28:23;;;;;;;43.83;29.45;;;5.70;95.10;;;;;;5074868;28;20035;-62
2023/01/21 10:31:05;;;;;;;43.78;30.30;;;5.70;95.00;;;;;;5061805;28;20517;-62
2023/01/21 10:33:32;;;;;;;42.50;28.42;;;5.70;95.00;;;;;;5066645;28;20021;-61
2023/01/21 10:36:25;;;;;;;42.40;29.67;;;5.70;95.00;;;;;;5064025;28;20024;-61
2023/01/21 10:39:09;;;;;;;;;;;5.80;94.80;;;;;;5067026;28;20055;-64
2023/01/21 10:41:43;;;;;;;41.30;26.15;;;5.80;94.60;;;;;;5064778;28;19913;-61
2023/01/21 10:44:26;;;;;;;39.03;26.90;;;5.80;94.60;;;;;;5071840;28;20024;-61
2023/01/21 10:47:06;;;;;;;39.65;27.50;;;5.90;94.50;;;;;;5072471;28;20035;-61
2023/01/21 10:49:53;;;;;;;42.08;28.75;;;6.00;94.30;;;;;;5070158;28;20066;-61
2023/01/21 10:52:44;;;;;;;39.63;24.48;;;5.90;94.30;;;;;;5071095;28;20025;-62
2023/01/21 10:55:44;;;;;;;38.78;26.92;;;6.00;94.30;;;;;;5071501;28;20062;-60
2023/01/21 10:58:34;;;;;;;40.55;27.45;;;6.00;94.20;;;;;;5068722;28;20039;-62
2023/01/21 11:01:03;;;;;;;38.75;25.40;;;6.00;94.20;;;;;;5068444;28;20086;-62
2023/01/21 11:03:40;;;;;;;38.22;26.83;;;6.00;94.50;;;;;;5068232;28;20108;-61
2023/01/21 11:06:09;;;;;;;38.67;25.98;;;6.00;94.40;;;;;;5074813;28;20489;-60
2023/01/21 11:08:36;;;;;;;37.58;25.38;;;6.00;94.20;;;;;;5073891;28;20028;-60
2023/01/21 11:11:05;;;;;;;38.70;26.20;;;5.90;94.50;;;;;;5066710;28;20032;-62
2023/01/21 11:13:31;;;;;;;38.45;25.77;;;5.90;94.50;;;;;;5070853;28;20474;-61
2023/01/21 11:15:58;;;;;;;39.17;26.25;;;6.00;94.30;;;;;;5067318;28;20030;-60
2023/01/21 11:18:29;;;;;;;41.38;26.48;;;6.00;94.20;;;;;;5072806;28;20020;-62
2023/01/21 11:20:58;;;;;;;37.17;25.02;;;6.10;94.30;;;;;;5052784;28;20044;-64
2023/01/21 11:23:27;;;;;;;43.47;26.40;;;6.00;94.70;;;;;;5079368;28;20024;-65
2023/01/21 11:26:00;;;;;;;37.92;24.75;;;6.00;94.60;;;;;;5072663;28;20030;-62
2023/01/21 11:28:30;;;;;;;34.40;23.80;;;6.00;94.90;;;;;;5069872;28;20060;-61
2023/01/21 11:31:23;;;;;;;34.60;23.50;;;6.10;95.30;;;;;;5069347;28;20064;-61
2023/01/21 11:33:49;;;;;;;34.67;23.15;;;6.10;95.10;;;;;;5053428;28;20035;-61
2023/01/21 11:36:17;;;;;;;36.55;22.67;;;6.10;95.50;;;;;;5071443;28;20016;-61
2023/01/21 11:38:45;;;;;;;37.33;25.13;;;6.10;95.70;;;;;;5062463;28;20060;-62
2023/01/21 11:41:11;;;;;;;37.58;25.30;;;6.20;96.30;;;;;;5064064;28;20033;-63
2023/01/21 11:44:14;;;;;;;41.95;27.90;;;6.20;96.40;;;;;;5063872;28;20132;-61
2023/01/21 11:46:40;;;;;;;39.53;24.25;;;6.30;95.80;;;;;;5067653;28;20029;-62
2023/01/21 11:49:06;;;;;;;37.53;24.73;;;6.30;95.80;;;;;;5066990;28;20413;-60
2023/01/21 11:51:32;;;;;;;39.97;25.88;;;6.30;96.80;;;;;;5078998;28;20338;-61
2023/01/21 11:54:19;;;;;;;43.53;25.40;;;6.30;97.40;;;;;;5066181;28;20539;-61
2023/01/21 11:57:01;;;;;;;39.67;25.13;;;6.30;97.50;;;;;;5071493;28;20043;-61
2023/01/21 11:59:32;;;;;;;37.35;24.67;;;6.30;97.90;;;;;;5070517;28;20029;-62
2023/01/21 12:02:09;;;;;;;31.77;22.50;;;6.50;95.90;;;;;;5070190;28;20481;-61
2023/01/21 12:04:35;;;;;;;38.67;26.40;;;6.40;95.70;;;;;;5073885;28;20020;-62
2023/01/21 12:07:03;;;;;;;34.15;23.73;;;6.50;95.20;;;;;;5086911;28;20024;-62
2023/01/21 12:09:28;;;;;;;35.88;24.25;;;6.40;95.20;;;;;;5078587;28;20547;-61
2023/01/21 12:12:12;;;;;;;34.65;23.90;;;6.40;96.10;;;;;;5072977;28;20024;-62
2023/01/21 12:15:16;;;;;;;35.83;23.65;;;6.50;95.40;;;;;;5071006;28;20048;-61
2023/01/21 12:18:11;;;;;;;31.23;21.40;;;6.50;95.20;;;;;;5048281;28;20377;-62
2023/01/21 12:21:00;;;;;;;34.22;24.60;;;6.50;95.40;;;;;;5019394;28;20120;-62
2023/01/21 12:23:48;;;;;;;37.92;24.65;;;6.60;94.80;;;;;;5053870;28;20519;-64
2023/01/21 12:26:24;;;;;;;36.38;25.90;;;6.50;94.60;;;;;;5070345;28;20051;-62
2023/01/21 12:29:14;;;;;;;35.28;25.55;;;6.50;94.70;;;;;;5055837;28;20463;-62
2023/01/21 12:31:45;;;;;;;41.10;25.33;;;6.60;94.70;;;;;;5072964;28;20045;-61
2023/01/21 12:34:33;;;;;;;34.05;22.55;;;6.60;94.60;;;;;;5074407;28;20020;-61
2023/01/21 12:37:05;;;;;;;38.00;26.88;;;6.70;95.40;;;;;;5080619;28;20086;-63
2023/01/21 12:39:36;;;;;;;41.17;27.70;;;6.80;94.50;;;;;;5075575;28;20113;-60
2023/01/21 12:42:21;;;;;;;36.40;26.08;;;6.70;94.20;;;;;;5073956;28;20020;-62
2023/01/21 12:45:13;;;;;;;37.10;25.70;;;6.70;94.50;;;;;;5067246;28;20077;-59
2023/01/21 12:47:54;;;;;;;38.33;26.63;;;6.80;93.90;;;;;;5068054;28;20100;-61
2023/01/21 12:50:23;;;;;;;38.20;27.55;;;6.70;93.70;;;;;;5044484;28;20044;-61
2023/01/21 12:53:09;;;;;;;39.58;27.23;;;6.70;93.80;;;;;;5074233;28;20040;-61
2023/01/21 12:55:54;;;;;;;38.75;27.73;;;6.70;94.00;;;;;;5069911;28;20032;-62
2023/01/21 12:58:23;;;;;;;39.17;27.10;;;6.70;94.20;;;;;;5076684;28;20036;-61